Time;durP1;ratioP1;P1;durP2;ratioP2;P2;SDS_P1;SDS_P2;PMS_P1;PMS_P2;Temp;Humidity;BMP_temperature;BMP_pressure;BME280_temperature;BME280_humidity;BME280_pressure;Samples;Min_cycle;Max_cycle;Signal;HPM_P1;HPM_P2
2022/12/15 00:40:59;;;;;;;28.93;15.57;;;;;;;-2.22;66.81;100730.97;5062927;28;20052;-45
2022/12/15 00:43:26;;;;;;;29.47;15.97;;;;;;;-2.22;67.08;100725.94;5062429;28;20047;-53
2022/12/15 00:48:35;;;;;;;30.83;16.17;;;;;;;-2.20;67.04;100738.63;5060894;28;20113;-45
2022/12/15 00:51:01;;;;;;;31.17;16.02;;;;;;;-2.24;66.90;100740.06;5062896;28;20457;-45
2022/12/15 01:21:07;;;;;;;39.07;15.67;;;;;;;-2.23;67.12;100734.25;5059497;28;20063;-51
2022/12/15 01:23:33;;;;;;;40.60;17.00;;;;;;;-2.31;67.13;100730.25;5056282;28;20497;-41
2022/12/15 01:25:58;;;;;;;36.00;16.07;;;;;;;-2.27;66.84;100736.41;5059480;28;20044;-46
2022/12/15 01:28:24;;;;;;;35.20;16.63;;;;;;;-2.26;67.46;100753.28;5057511;28;20040;-48
2022/12/15 01:30:50;;;;;;;34.83;15.93;;;;;;;-2.27;67.03;100744.84;5057958;28;20033;-45
2022/12/15 01:33:16;;;;;;;37.80;18.03;;;;;;;-2.26;66.67;100754.16;5055556;28;20037;-50
2022/12/15 01:35:42;;;;;;;38.83;17.50;;;;;;;-2.28;66.53;100757.31;5056165;28;20033;-44
2022/12/15 01:38:09;;;;;;;42.97;18.53;;;;;;;-2.27;66.49;100759.94;5054666;28;20107;-44
2022/12/15 01:40:44;;;;;;;28.57;15.17;;;;;;;-2.33;66.95;100761.13;5061802;28;20469;-50
2022/12/15 01:43:21;;;;;;;25.63;14.43;;;;;;;-2.25;67.16;100765.97;5050513;28;20537;-40
2022/12/15 01:45:49;;;;;;;25.30;14.37;;;;;;;-2.32;66.70;100763.75;5057781;28;20136;-44
2022/12/15 01:48:36;;;;;;;25.60;13.87;;;;;;;-2.23;66.90;100771.16;5057747;28;20099;-46
2022/12/15 01:51:09;;;;;;;25.40;13.20;;;;;;;-2.26;66.74;100768.38;5058952;28;20036;-47
2022/12/15 01:53:41;;;;;;;26.07;14.00;;;;;;;-2.28;66.37;100770.78;5060112;28;20122;-44
2022/12/15 01:56:07;;;;;;;29.27;14.40;;;;;;;-2.33;66.74;100769.56;5061939;28;20107;-47
2022/12/15 01:58:34;;;;;;;24.87;14.20;;;;;;;-2.36;66.63;100770.97;5059280;28;20037;-46
2022/12/15 02:01:01;;;;;;;28.60;14.97;;;;;;;-2.33;66.99;100766.16;5064359;28;20028;-51
2022/12/15 02:03:27;;;;;;;25.90;14.57;;;;;;;-2.36;66.72;100766.81;5044659;23;20394;-72
2022/12/15 02:05:54;;;;;;;28.97;14.43;;;;;;;-2.36;67.03;100771.84;5017260;28;20041;-72
2022/12/15 02:08:20;;;;;;;26.27;14.33;;;;;;;-2.36;67.50;100774.38;5020646;28;20032;-73
2022/12/15 02:11:05;;;;;;;25.23;14.53;;;;;;;-2.37;66.98;100777.63;5025438;28;20416;-74
2022/12/15 02:13:47;;;;;;;26.33;14.80;;;;;;;-2.45;66.83;100774.50;5026887;28;20037;-74
2022/12/15 02:16:35;;;;;;;25.10;14.40;;;;;;;-2.41;67.61;100782.31;5015198;28;20029;-73
2022/12/15 02:19:17;;;;;;;25.80;14.30;;;;;;;-2.37;67.35;100795.25;5022753;28;20095;-73
2022/12/15 02:22:00;;;;;;;29.87;15.00;;;;;;;-2.42;67.15;100791.53;5024390;28;20025;-73
2022/12/15 02:24:31;;;;;;;26.87;15.13;;;;;;;-2.41;67.18;100808.38;5021864;28;20508;-73
2022/12/15 02:27:09;;;;;;;27.40;14.80;;;;;;;-2.44;67.61;100800.56;5022795;28;20067;-73
2022/12/15 02:29:56;;;;;;;28.70;14.73;;;;;;;-2.46;66.84;100795.44;5018387;28;20038;-73
2022/12/15 02:32:29;;;;;;;26.90;14.57;;;;;;;-2.45;67.05;100801.34;5017972;28;20040;-73
2022/12/15 02:35:04;;;;;;;26.03;14.67;;;;;;;-2.46;66.96;100799.59;5019938;28;20484;-73
2022/12/15 02:37:36;;;;;;;24.70;14.90;;;;;;;-2.50;67.33;100797.56;5021411;28;20444;-73
2022/12/15 02:40:04;;;;;;;27.90;14.87;;;;;;;-2.54;67.13;100801.50;5018348;28;20428;-73
2022/12/15 02:42:33;;;;;;;27.57;15.60;;;;;;;-2.57;67.72;100796.22;5018954;28;20451;-73
2022/12/15 02:45:08;;;;;;;27.70;14.90;;;;;;;-2.55;67.54;100794.72;5021447;28;20079;-73
2022/12/15 02:48:21;;;;;;;24.90;14.60;;;;;;;-2.50;67.52;100803.47;5019012;28;20036;-73
2022/12/15 02:51:03;;;;;;;29.87;15.10;;;;;;;-2.52;67.22;100792.44;5019029;28;20109;-73
2022/12/15 02:53:43;;;;;;;28.50;15.13;;;;;;;-2.50;67.29;100802.59;5024308;28;20404;-73
2022/12/15 02:56:17;;;;;;;28.00;15.10;;;;;;;-2.57;67.23;100800.38;5025753;28;20035;-73
2022/12/15 02:58:45;;;;;;;28.23;15.23;;;;;;;-2.58;67.71;100804.53;5026378;28;20067;-73
2022/12/15 03:01:19;;;;;;;26.60;14.70;;;;;;;-2.61;67.56;100808.44;5024267;28;20041;-73
2022/12/15 03:03:47;;;;;;;29.03;15.23;;;;;;;-2.67;67.94;100810.47;5020589;28;20052;-73
2022/12/15 03:06:14;;;;;;;26.93;15.53;;;;;;;-2.71;67.86;100805.19;5018992;28;20032;-73
2022/12/15 03:08:39;;;;;;;27.90;15.57;;;;;;;-2.68;68.13;100812.09;5025514;28;20555;-73
2022/12/15 03:11:05;;;;;;;28.57;16.07;;;;;;;-2.65;68.11;100801.41;5023900;28;20502;-73
2022/12/15 03:13:30;;;;;;;29.73;15.47;;;;;;;-2.64;67.87;100804.03;5023825;28;20037;-73
2022/12/15 03:15:57;;;;;;;28.23;15.43;;;;;;;-2.61;68.00;100809.34;5021835;28;20041;-72
2022/12/15 03:18:22;;;;;;;26.93;14.97;;;;;;;-2.61;67.68;100809.34;5020559;28;20026;-73
2022/12/15 03:20:48;;;;;;;26.30;15.10;;;;;;;-2.63;67.86;100815.00;5029663;28;20109;-73
2022/12/15 03:23:13;;;;;;;29.57;15.10;;;;;;;-2.68;67.79;100817.13;5017077;28;20065;-74
2022/12/15 03:25:38;;;;;;;29.23;15.53;;;;;;;-2.68;67.76;100816.25;5023199;28;20056;-73
2022/12/15 03:28:04;;;;;;;28.97;15.90;;;;;;;-2.67;68.00;100818.00;5019276;28;20037;-72
2022/12/15 03:30:29;;;;;;;29.90;16.00;;;;;;;-2.71;68.13;100821.94;5022510;28;20029;-73
2022/12/15 03:32:55;;;;;;;28.80;15.87;;;;;;;-2.76;68.08;100821.56;5020983;28;20171;-73
2022/12/15 03:35:20;;;;;;;31.77;16.37;;;;;;;-2.77;67.93;100822.31;5022757;28;20801;-72
2022/12/15 03:37:46;;;;;;;31.67;15.53;;;;;;;-2.80;68.13;100832.13;5019835;28;20033;-73
2022/12/15 03:40:12;;;;;;;28.47;15.57;;;;;;;-2.82;68.57;100838.69;5022821;28;20119;-72
2022/12/15 03:42:47;;;;;;;28.83;15.73;;;;;;;-2.83;68.39;100836.06;5022066;28;20033;-72
2022/12/15 03:45:21;;;;;;;31.40;16.23;;;;;;;-2.85;68.76;100832.53;5021502;28;20439;-72
2022/12/15 03:47:48;;;;;;;31.53;16.30;;;;;;;-2.81;67.97;100834.53;5020319;28;20037;-72
2022/12/15 03:50:15;;;;;;;32.30;15.50;;;;;;;-2.79;68.32;100833.00;5038384;28;20773;-72
2022/12/15 03:52:41;;;;;;;29.77;15.77;;;;;;;-2.74;68.19;100839.28;5020843;28;20480;-72
2022/12/15 03:55:07;;;;;;;27.37;15.70;;;;;;;-2.73;68.02;100839.44;5025408;28;20025;-72
2022/12/15 03:57:33;;;;;;;32.40;15.23;;;;;;;-2.73;68.09;100836.03;5017143;28;20048;-72
2022/12/15 03:59:59;;;;;;;27.47;15.53;;;;;;;-2.74;67.92;100840.19;5023773;28;20037;-72
2022/12/15 04:02:24;;;;;;;28.83;15.47;;;;;;;-2.77;68.30;100834.91;5023118;28;20073;-72
2022/12/15 04:04:49;;;;;;;29.03;16.57;;;;;;;-2.77;68.38;100834.91;5022577;28;20038;-72
2022/12/15 04:07:15;;;;;;;28.53;15.87;;;;;;;-2.76;68.45;100835.78;5022858;28;20033;-73
2022/12/15 04:09:40;;;;;;;27.87;14.80;;;;;;;-2.74;68.61;100825.06;5022977;28;20037;-73
2022/12/15 04:12:06;;;;;;;26.60;14.67;;;;;;;-2.72;68.47;100823.59;5021264;28;20493;-73
2022/12/15 04:14:32;;;;;;;29.40;16.37;;;;;;;-2.71;68.69;100826.97;5024486;28;20124;-72
2022/12/15 04:16:57;;;;;;;26.97;15.13;;;;;;;-2.73;68.84;100828.47;5024102;28;20060;-72
2022/12/15 04:22:07;;;;;;;27.50;15.37;;;;;;;-2.72;68.42;100827.75;5026209;28;20045;-72
2022/12/15 05:33:02;;;;;;;27.27;15.90;;;;;;;-2.82;68.28;100862.97;5019813;28;20136;-67
2022/12/15 05:35:28;;;;;;;26.07;15.60;;;;;;;-2.80;68.26;100863.97;5023162;28;20369;-67
2022/12/15 05:37:53;;;;;;;26.53;15.47;;;;;;;-2.83;68.19;100864.63;5017714;28;20067;-67
2022/12/15 05:40:19;;;;;;;28.70;16.43;;;;;;;-2.85;68.20;100857.69;5024755;28;20511;-67
2022/12/15 05:42:44;;;;;;;29.97;16.30;;;;;;;-2.85;68.91;100865.22;5023837;28;20488;-67
2022/12/15 05:45:09;;;;;;;29.97;16.70;;;;;;;-2.86;68.64;100861.84;5023431;28;20400;-66
2022/12/15 05:47:35;;;;;;;27.67;15.83;;;;;;;-2.83;68.95;100872.16;5043263;28;20179;-66
2022/12/15 05:50:00;;;;;;;30.97;16.53;;;;;;;-2.83;68.79;100876.31;5024712;28;20030;-67
2022/12/15 05:52:26;;;;;;;30.27;16.10;;;;;;;-2.84;68.49;100880.47;5025702;28;20022;-67
2022/12/15 05:54:51;;;;;;;27.90;16.37;;;;;;;-2.81;68.66;100885.75;5025941;28;20555;-67
2022/12/15 05:57:16;;;;;;;29.00;16.87;;;;;;;-2.84;68.76;100880.47;5023744;28;20037;-67
2022/12/15 05:59:42;;;;;;;29.27;16.30;;;;;;;-2.84;68.46;100884.63;5027818;28;20040;-67
2022/12/15 06:02:07;;;;;;;29.00;15.80;;;;;;;-2.92;68.67;100878.94;5023953;28;20133;-67
2022/12/15 06:04:33;;;;;;;29.57;17.13;;;;;;;-2.97;68.57;100882.75;5024559;28;20560;-67
2022/12/15 06:06:58;;;;;;;32.23;17.57;;;;;;;-2.96;69.07;100874.44;5025643;28;20026;-67
2022/12/15 06:09:23;;;;;;;31.40;16.33;;;;;;;-2.93;69.28;100887.25;5026140;28;20392;-67
2022/12/15 06:11:49;;;;;;;31.00;16.97;;;;;;;-2.95;69.68;100888.78;5015233;28;20038;-67
2022/12/15 06:14:14;;;;;;;32.93;17.30;;;;;;;-2.95;69.59;100896.34;5018746;28;20029;-67
2022/12/15 06:16:39;;;;;;;32.30;17.33;;;;;;;-2.97;69.35;100897.84;5020047;28;20033;-67
2022/12/15 06:19:05;;;;;;;28.73;17.67;;;;;;;-3.03;69.88;100888.16;5017880;28;20039;-67
2022/12/15 06:21:34;;;;;;;33.90;17.80;;;;;;;-3.03;69.98;100897.34;5016930;28;20037;-67
2022/12/15 06:24:01;;;;;;;34.07;18.57;;;;;;;-3.06;70.22;100890.41;5019365;28;20044;-67
2022/12/15 06:26:32;;;;;;;32.77;18.47;;;;;;;-3.00;70.07;100895.06;5019974;28;20041;-67
2022/12/15 06:29:01;;;;;;;33.53;18.20;;;;;;;-3.01;70.23;100896.72;5022181;28;20029;-67
2022/12/15 06:31:27;;;;;;;35.20;19.85;;;;;;;-2.99;70.09;100904.38;5019121;28;20116;-67
2022/12/15 06:33:55;;;;;;;33.27;18.33;;;;;;;-3.04;69.73;100895.56;5020313;28;20021;-67
2022/12/15 06:36:22;;;;;;;35.13;18.63;;;;;;;-3.04;70.45;100888.00;5023305;28;20025;-66
2022/12/15 06:38:48;;;;;;;33.93;18.27;;;;;;;-3.04;70.35;100885.50;5022117;28;20033;-67
2022/12/15 06:41:16;;;;;;;30.60;17.93;;;;;;;-3.08;70.27;100884.38;5018754;28;20040;-67
2022/12/15 06:43:47;;;;;;;32.83;18.30;;;;;;;-3.03;70.38;100888.16;5022784;28;20112;-67
2022/12/15 06:46:12;;;;;;;33.27;18.63;;;;;;;-3.00;70.02;100907.66;5017979;28;20049;-66
2022/12/15 06:48:38;;;;;;;33.10;18.63;;;;;;;-3.02;70.02;100899.09;5021024;28;20029;-67
2022/12/15 06:51:05;;;;;;;33.23;18.53;;;;;;;-3.01;70.25;100901.75;5015628;28;20083;-66
2022/12/15 06:53:31;;;;;;;32.70;18.07;;;;;;;-3.05;69.87;100896.31;5025479;28;20384;-66
2022/12/15 06:56:02;;;;;;;34.33;19.40;;;;;;;-3.02;70.57;100901.63;5024510;28;20476;-67
2022/12/15 06:58:28;;;;;;;34.17;19.87;;;;;;;-3.02;70.40;100899.09;5024466;28;20017;-67
2022/12/15 07:00:55;;;;;;;35.63;19.63;;;;;;;-3.06;70.34;100895.44;5022938;28;20044;-67
2022/12/15 07:03:21;;;;;;;40.10;20.17;;;;;;;-3.09;70.32;100902.75;5021575;28;20042;-67
2022/12/15 07:05:46;;;;;;;34.37;20.33;;;;;;;-3.08;70.65;100899.47;5021592;28;20053;-67
2022/12/15 07:08:14;;;;;;;34.87;20.47;;;;;;;-3.04;70.67;100903.09;5023034;28;20025;-66
2022/12/15 07:10:41;;;;;;;37.30;20.87;;;;;;;-3.07;70.91;100901.22;5019658;28;20049;-66
2022/12/15 07:13:11;;;;;;;35.00;20.70;;;;;;;-3.10;70.22;100911.03;5020591;28;20068;-66
2022/12/15 07:15:37;;;;;;;36.47;20.17;;;;;;;-3.14;70.60;100916.56;5023301;28;20030;-66
2022/12/15 07:18:03;;;;;;;32.63;20.00;;;;;;;-3.16;70.90;100910.53;5026151;28;20472;-66
2022/12/15 07:20:29;;;;;;;38.57;20.10;;;;;;;-3.16;71.10;100907.13;5019519;28;20044;-66
2022/12/15 07:22:54;;;;;;;37.53;19.37;;;;;;;-3.18;71.08;100922.09;5016487;28;20384;-66
2022/12/15 07:25:21;;;;;;;35.20;20.17;;;;;;;-3.21;71.25;100926.00;5021053;28;20396;-66
2022/12/15 07:27:47;;;;;;;37.57;19.40;;;;;;;-3.24;71.38;100922.47;5019417;28;20036;-66
2022/12/15 07:30:14;;;;;;;38.30;20.90;;;;;;;-3.22;71.75;100924.22;5022409;28;20030;-67
2022/12/15 07:32:40;;;;;;;39.40;19.97;;;;;;;-3.20;71.83;100920.22;5024516;28;20512;-66
2022/12/15 07:35:07;;;;;;;33.07;19.40;;;;;;;-3.19;71.61;100925.38;5023875;28;20503;-67
2022/12/15 07:37:33;;;;;;;34.47;20.27;;;;;;;-3.23;71.86;100923.34;5024887;28;20401;-67
2022/12/15 07:39:59;;;;;;;38.27;20.17;;;;;;;-3.20;71.80;100925.25;5022521;28;20021;-69
2022/12/15 07:42:24;;;;;;;36.73;20.33;;;;;;;-3.20;71.70;100925.25;5022756;28;20030;-68
2022/12/15 07:44:50;;;;;;;33.53;19.60;;;;;;;-3.20;71.88;100926.13;5022924;28;20036;-69
2022/12/15 07:47:15;;;;;;;35.87;19.90;;;;;;;-3.15;72.10;100921.50;5023439;28;20120;-68
2022/12/15 07:49:40;;;;;;;36.93;19.80;;;;;;;-3.13;71.93;100935.06;5019494;28;20056;-68
2022/12/15 07:52:06;;;;;;;35.23;18.97;;;;;;;-3.12;71.40;100935.19;5022519;28;20065;-69
2022/12/15 07:54:31;;;;;;;37.10;19.73;;;;;;;-3.13;71.86;100935.06;5015017;28;20873;-68
2022/12/15 07:56:58;;;;;;;36.13;20.30;;;;;;;-3.14;71.72;100945.88;5020252;28;20427;-68
2022/12/15 07:59:24;;;;;;;37.63;20.03;;;;;;;-3.13;71.68;100945.13;5020981;28;20546;-68
2022/12/15 08:01:51;;;;;;;35.40;20.07;;;;;;;-3.10;71.85;100947.88;5022491;28;20446;-68
2022/12/15 08:04:17;;;;;;;38.53;20.63;;;;;;;-3.08;71.93;100948.91;5020320;28;20088;-69
2022/12/15 08:06:43;;;;;;;38.83;20.37;;;;;;;-3.09;71.87;100945.50;5020404;28;20064;-68
2022/12/15 08:09:08;;;;;;;38.20;21.03;;;;;;;-3.08;71.88;100943.88;5020745;28;20026;-69
2022/12/15 08:11:34;;;;;;;39.17;20.47;;;;;;;-3.04;72.15;100956.81;5019326;28;20140;-69
2022/12/15 08:13:59;;;;;;;33.50;20.20;;;;;;;-3.04;71.86;100955.94;5021780;28;20036;-68
2022/12/15 08:16:25;;;;;;;35.10;20.67;;;;;;;-3.07;72.41;100945.63;5021377;28;20080;-69
2022/12/15 08:18:50;;;;;;;38.80;21.13;;;;;;;-3.04;71.96;100953.41;5020129;28;20036;-69
2022/12/15 08:21:16;;;;;;;39.27;21.03;;;;;;;-3.01;72.16;100951.16;5018381;28;20025;-69
2022/12/15 08:23:42;;;;;;;36.57;21.10;;;;;;;-3.02;72.08;100955.31;5021705;28;20025;-69
2022/12/15 08:26:10;;;;;;;38.17;21.13;;;;;;;-3.02;72.24;100955.31;5022607;28;21685;-68
2022/12/15 08:28:38;;;;;;;41.37;21.27;;;;;;;-3.00;72.55;100958.84;5011913;28;20017;-68
2022/12/15 08:31:09;;;;;;;45.80;20.53;;;;;;;-2.99;72.65;100960.59;5018887;28;20043;-68
2022/12/15 08:33:35;;;;;;;41.33;20.97;;;;;;;-2.98;72.68;100953.94;5020288;28;20031;-68
2022/12/15 08:36:03;;;;;;;39.60;19.20;;;;;;;-2.97;72.37;100958.22;5019131;28;20040;-71
2022/12/15 08:38:30;;;;;;;40.27;19.73;;;;;;;-2.94;73.00;100955.06;5021647;28;20048;-70
2022/12/15 08:40:56;;;;;;;37.43;19.97;;;;;;;-2.88;72.83;100964.00;5021943;28;20057;-70
2022/12/15 08:43:22;;;;;;;37.37;20.40;;;;;;;-2.86;72.76;100961.59;5021196;28;20120;-70
2022/12/15 08:45:47;;;;;;;41.33;22.10;;;;;;;-2.80;73.08;100964.63;5020399;28;20045;-71
2022/12/15 08:48:13;;;;;;;40.60;20.93;;;;;;;-2.80;72.96;100960.47;5020763;28;20151;-71
2022/12/15 08:50:43;;;;;;;38.40;20.77;;;;;;;-2.73;73.00;100969.41;5020556;28;20034;-70
2022/12/15 08:53:09;;;;;;;38.43;21.07;;;;;;;-2.70;72.99;100975.59;5022133;28;20025;-70
2022/12/15 08:55:35;;;;;;;36.77;21.60;;;;;;;-2.62;73.29;100970.28;5022011;28;20115;-71
2022/12/15 08:58:00;;;;;;;40.22;21.80;;;;;;;-2.51;73.31;100980.50;5021781;28;20424;-71
2022/12/15 09:00:26;;;;;;;38.80;22.23;;;;;;;-2.45;73.23;100977.59;5018470;28;20053;-70
2022/12/15 09:02:51;;;;;;;41.47;21.70;;;;;;;-2.28;73.13;100987.41;5002404;28;20112;-71
2022/12/15 09:05:16;;;;;;;43.90;21.95;;;;;;;-2.14;72.76;100985.09;5021729;28;20037;-71
2022/12/15 09:07:42;;;;;;;38.85;23.63;;;;;;;-2.02;72.45;100986.97;5021569;28;20045;-71
2022/12/15 09:10:07;;;;;;;42.45;23.27;;;;;;;-1.87;71.97;100991.47;5019887;28;20109;-71
2022/12/15 09:12:33;;;;;;;35.20;21.10;;;;;;;-1.76;72.04;100989.03;5019901;28;20385;-71
2022/12/15 09:14:58;;;;;;;36.30;22.17;;;;;;;-1.67;71.79;100987.22;5022119;28;20033;-75
2022/12/15 09:17:23;;;;;;;41.80;23.45;;;;;;;-1.61;71.79;100981.78;5019539;28;20411;-74
2022/12/15 09:19:49;;;;;;;41.92;22.90;;;;;;;-1.45;71.65;100993.97;5018665;28;20041;-74
2022/12/15 09:22:14;;;;;;;41.03;21.90;;;;;;;-1.35;71.48;101001.47;5018479;28;20025;-74
2022/12/15 09:24:39;;;;;;;38.53;22.13;;;;;;;-1.41;71.11;100991.78;5018264;28;20519;-73
2022/12/15 09:27:05;;;;;;;37.63;22.20;;;;;;;-1.32;71.44;101004.25;5016265;28;21672;-73
2022/12/15 09:29:31;;;;;;;36.80;21.67;;;;;;;-1.25;71.80;101005.59;5024567;28;20440;-73
2022/12/15 09:31:56;;;;;;;36.65;22.15;;;;;;;-1.22;71.63;101006.69;5022491;28;20037;-73
2022/12/15 09:34:22;;;;;;;38.53;22.08;;;;;;;-1.15;71.68;101006.41;5020245;28;20377;-74
2022/12/15 09:36:47;;;;;;;40.50;22.30;;;;;;;-1.04;71.50;101016.44;5023487;28;20048;-74
2022/12/15 09:39:14;;;;;;;37.15;21.70;;;;;;;-0.97;71.30;101019.56;5021737;28;20107;-75
2022/12/15 09:41:40;;;;;;;40.90;22.90;;;;;;;-0.90;71.32;101021.78;5022547;28;20033;-74
2022/12/15 09:44:11;;;;;;;37.20;21.67;;;;;;;-0.85;71.45;101020.50;5022004;28;20029;-75
2022/12/15 09:47:12;;;;;;;42.67;22.13;;;;;;;-0.74;71.53;101031.38;5023032;28;20033;-75
2022/12/15 09:50:03;;;;;;;40.25;22.75;;;;;;;-0.64;71.52;101036.38;5022416;28;20635;-74
2022/12/15 09:52:40;;;;;;;45.17;22.88;;;;;;;-0.60;71.19;101040.91;5019976;28;20136;-77
2022/12/15 09:55:19;;;;;;;40.65;22.83;;;;;;;-0.51;71.47;101039.81;5026174;28;20112;-76
2022/12/15 09:58:07;;;;;;;37.88;22.70;;;;;;;-0.41;71.32;101032.16;5023660;28;20116;-76
2022/12/15 10:00:44;;;;;;;41.58;22.40;;;;;;;-0.33;71.05;101031.06;5022410;28;20033;-76
2022/12/15 10:03:35;;;;;;;38.70;22.52;;;;;;;-0.24;70.93;101029.25;5024043;28;20049;-75
2022/12/15 10:06:17;;;;;;;39.75;22.58;;;;;;;-0.12;70.42;101027.63;5027141;28;20029;-76
2022/12/15 10:08:57;;;;;;;39.22;22.55;;;;;;;-0.02;70.45;101035.06;5024042;28;20029;-76
2022/12/15 10:11:43;;;;;;;39.40;22.92;;;;;;;0.13;70.48;101031.91;5027020;28;20503;-76
2022/12/15 10:14:30;;;;;;;38.42;22.08;;;;;;;0.24;69.79;101038.59;5021796;28;20030;-75
2022/12/15 10:17:32;;;;;;;39.17;22.67;;;;;;;0.37;70.06;101037.84;5023009;28;20034;-76
2022/12/15 10:20:05;;;;;;;37.55;22.08;;;;;;;0.45;69.51;101035.09;5023759;28;20076;-75
2022/12/15 10:22:35;;;;;;;38.20;22.65;;;;;;;0.52;69.63;101031.34;5027010;28;20021;-75
2022/12/15 10:25:16;;;;;;;41.67;23.58;;;;;;;0.64;69.68;101023.72;5027078;28;20037;-76
2022/12/15 10:28:06;;;;;;;39.42;23.05;;;;;;;0.72;69.69;101020.94;5025974;28;20044;-76
2022/12/15 10:30:32;;;;;;;42.95;22.88;;;;;;;0.83;69.35;101020.81;5026770;28;20579;-76
2022/12/15 10:32:58;;;;;;;40.13;23.67;;;;;;;1.01;68.88;101025.50;5024262;28;20112;-76
2022/12/15 10:35:35;;;;;;;38.35;23.35;;;;;;;1.24;68.54;101018.59;5026709;28;20140;-76
2022/12/15 10:38:05;;;;;;;35.28;23.27;;;;;;;1.49;67.89;101019.47;5023232;28;20119;-76
2022/12/15 10:40:53;;;;;;;40.05;22.77;;;;;;;1.81;67.99;101018.16;5019305;28;20866;-76
2022/12/15 10:43:35;;;;;;;37.35;22.90;;;;;;;2.17;66.15;101021.31;5023724;28;20029;-75
2022/12/15 10:46:22;;;;;;;36.83;22.50;;;;;;;2.53;64.70;101028.72;5026698;28;20036;-76
2022/12/15 10:48:50;;;;;;;40.10;23.70;;;;;;;2.98;63.47;101022.22;5020232;28;20028;-77
2022/12/15 10:51:26;;;;;;;36.85;21.88;;;;;;;3.09;62.75;101026.25;5022672;28;20025;-77
2022/12/15 10:54:12;;;;;;;33.47;21.40;;;;;;;3.23;63.34;101022.91;5019337;28;20036;-77
2022/12/15 10:56:55;;;;;;;35.03;21.75;;;;;;;3.05;63.59;101024.31;5021863;28;20076;-77
2022/12/15 10:59:32;;;;;;;33.60;21.58;;;;;;;2.88;62.95;101024.97;5022721;28;20065;-77
2022/12/15 11:02:20;;;;;;;33.65;22.45;;;;;;;2.88;64.31;101024.97;5023738;28;20028;-77
2022/12/15 11:05:14;;;;;;;34.22;22.45;;;;;;;2.79;64.32;101027.81;5024294;28;20634;-77
2022/12/15 11:07:41;;;;;;;31.63;21.38;;;;;;;2.65;64.11;101024.41;5027220;28;20040;-77
2022/12/15 11:12:50;;;;;;;34.78;22.70;;;;;;;2.69;64.48;101020.41;5029104;28;20041;-73
2022/12/15 11:13:19;;;;;;;33.95;21.52;;;;;;;2.58;64.27;101016.31;5021701;28;20049;-74
2022/12/15 11:15:45;;;;;;;35.97;22.13;;;;;;;2.52;64.81;101018.47;5027137;28;20038;-74
2022/12/15 11:18:37;;;;;;;34.83;22.38;;;;;;;2.63;65.30;101017.50;5028078;28;20021;-74
2022/12/15 11:21:23;;;;;;;36.72;23.10;;;;;;;2.59;65.49;101018.06;5027675;28;20092;-69
2022/12/15 11:24:02;;;;;;;34.20;22.65;;;;;;;2.46;65.32;101011.34;5028674;28;20033;-69
2022/12/15 11:26:44;;;;;;;35.38;22.00;;;;;;;2.47;65.72;101010.56;5026471;28;20033;-69
2022/12/15 11:29:17;;;;;;;33.83;21.63;;;;;;;2.48;65.85;101006.38;5027047;28;20049;-69
2022/12/15 11:31:44;;;;;;;34.50;21.98;;;;;;;2.39;65.97;101011.75;5026165;28;20098;-69
2022/12/15 11:34:16;;;;;;;34.88;22.52;;;;;;;2.39;66.35;101014.31;5024968;28;20705;-69
2022/12/15 11:37:11;;;;;;;33.97;21.77;;;;;;;2.44;66.41;101020.56;5026288;28;20476;-68
2022/12/15 11:39:48;;;;;;;35.05;22.70;;;;;;;2.41;66.60;101018.69;5024690;28;20284;-69
2022/12/15 11:42:36;;;;;;;35.63;21.83;;;;;;;2.35;66.30;101027.56;5024053;28;20069;-69
2022/12/15 11:45:16;;;;;;;36.40;22.50;;;;;;;2.39;66.38;101016.84;5025782;28;20116;-69
2022/12/15 11:48:04;;;;;;;35.92;21.98;;;;;;;2.40;66.56;101016.06;5023188;28;20036;-69
2022/12/15 11:51:00;;;;;;;38.33;21.98;;;;;;;2.40;66.41;101004.25;5025128;28;20083;-69
2022/12/15 11:53:57;;;;;;;37.45;22.30;;;;;;;2.36;67.04;101014.09;5023532;28;20408;-69
2022/12/15 11:56:36;;;;;;;37.50;22.65;;;;;;;2.37;66.96;101014.22;5025049;28;20032;-69
2022/12/15 11:59:25;;;;;;;40.75;22.48;;;;;;;2.44;66.49;101009.53;5026534;28;20037;-69
2022/12/15 12:02:18;;;;;;;34.15;21.55;;;;;;;2.44;66.42;101009.53;5023600;28;20034;-69
2022/12/15 12:05:34;;;;;;;36.13;21.85;;;;;;;2.46;66.99;101013.03;5023671;28;20137;-68
2022/12/15 12:08:11;;;;;;;35.67;21.98;;;;;;;2.43;67.30;101008.66;5011522;28;20065;-68
2022/12/15 12:11:01;;;;;;;34.92;22.58;;;;;;;2.48;67.07;101004.72;5025327;28;20037;-68
2022/12/15 12:13:46;;;;;;;36.33;21.70;;;;;;;2.49;67.31;100998.88;5022735;28;20107;-68
2022/12/15 12:17:02;;;;;;;35.55;21.92;;;;;;;2.55;67.18;100999.25;5025134;28;20033;-68
2022/12/15 12:19:32;;;;;;;36.35;22.92;;;;;;;2.49;67.64;100991.25;5005811;28;20072;-68
2022/12/15 12:22:05;;;;;;;36.15;22.45;;;;;;;2.49;67.84;100993.81;5023508;28;20056;-68
2022/12/15 12:24:44;;;;;;;33.95;21.10;;;;;;;2.51;67.35;100984.59;5025301;28;20068;-68
2022/12/15 12:27:51;;;;;;;35.65;21.02;;;;;;;2.56;67.59;100985.78;5024686;28;20365;-68
2022/12/15 12:30:20;;;;;;;32.30;21.73;;;;;;;2.52;67.81;100988.03;5022621;28;20097;-68
2022/12/15 12:32:51;;;;;;;33.90;21.87;;;;;;;2.51;67.47;100983.72;5022335;28;20043;-69
2022/12/15 12:35:45;;;;;;;34.38;21.17;;;;;;;2.62;67.97;100980.19;5023362;28;20540;-68
2022/12/15 12:38:12;;;;;;;33.22;20.15;;;;;;;2.55;67.63;100978.94;5024548;28;20033;-68
2022/12/15 12:40:59;;;;;;;32.30;20.50;;;;;;;2.66;68.24;100982.13;5024408;28;20025;-68
2022/12/15 12:43:32;;;;;;;31.80;20.67;;;;;;;2.63;67.98;100987.91;5023790;28;20083;-68
2022/12/15 12:46:14;;;;;;;31.85;20.63;;;;;;;2.67;68.18;100977.16;5024370;28;20040;-68
2022/12/15 12:48:47;;;;;;;33.42;21.80;;;;;;;2.68;68.36;100984.00;5023243;28;20018;-68
2022/12/15 12:51:29;;;;;;;32.97;21.27;;;;;;;2.72;68.32;100974.88;5024863;28;20025;-68
2022/12/15 12:53:56;;;;;;;33.65;21.60;;;;;;;2.67;68.10;100984.78;5022889;28;20021;-68
2022/12/15 12:56:33;;;;;;;34.42;21.50;;;;;;;2.74;68.43;100975.00;5024308;28;20051;-68
2022/12/15 12:58:58;;;;;;;33.80;20.70;;;;;;;2.66;68.36;100965.22;5022583;28;20041;-68
2022/12/15 13:12:58;;;;;;;;;;;;;;;;;;;;;
2022/12/15 13:23:07;;;;;;;32.50;21.38;;;;;;;2.82;68.54;100940.78;4898245;29;20043;-70
2022/12/15 13:26:21;;;;;;;33.97;21.48;;;;;;;2.88;68.71;100939.47;4906987;29;20058;-70
2022/12/15 13:29:02;;;;;;;34.17;21.08;;;;;;;2.80;69.09;100927.13;4868461;29;20040;-70
2022/12/15 13:34:57;;;;;;;32.35;20.85;;;;;;;2.87;68.59;100929.25;4830909;29;20042;-70
2022/12/15 13:37:52;;;;;;;34.28;21.73;;;;;;;2.96;68.45;100927.22;4965848;28;20464;-70
2022/12/15 13:41:00;;;;;;;33.33;21.00;;;;;;;2.93;68.66;100922.00;5028717;28;20048;-70
2022/12/15 13:43:48;;;;;;;35.13;21.45;;;;;;;2.92;68.82;100922.78;4993926;28;20508;-71
2022/12/15 13:46:38;;;;;;;32.03;21.00;;;;;;;2.93;68.67;100907.63;5022538;28;20042;-71
2022/12/15 13:49:24;;;;;;;;;;;;;;;3.11;68.49;100922.19;5019864;28;20029;-71
2022/12/15 13:52:18;;;;;;;36.95;21.55;;;;;;;2.99;68.99;100914.72;5021504;28;19959;-71
2022/12/15 13:55:04;;;;;;;33.80;20.38;;;;;;;2.98;68.84;100907.91;5023495;28;22110;-71
2022/12/15 13:57:44;;;;;;;37.47;22.08;;;;;;;2.90;68.84;100899.81;5020693;28;20037;-71
2022/12/15 14:00:35;;;;;;;35.17;21.23;;;;;;;2.89;69.40;100892.09;5022040;28;20137;-71
2022/12/15 14:03:11;;;;;;;37.97;21.95;;;;;;;2.89;69.28;100904.81;5026238;28;20025;-71
2022/12/15 14:06:14;;;;;;;36.47;21.40;;;;;;;2.91;69.42;100910.84;5020354;28;20064;-71
2022/12/15 14:09:16;;;;;;;37.53;22.33;;;;;;;2.85;69.06;100906.31;5013677;28;20068;-70
2022/12/15 14:12:06;;;;;;;34.63;22.13;;;;;;;2.87;69.22;100908.91;5037584;28;20041;-71
2022/12/15 14:14:51;;;;;;;36.10;21.20;;;;;;;2.82;69.62;100908.63;5004818;28;20495;-71
2022/12/15 14:17:31;;;;;;;34.63;21.75;;;;;;;2.78;69.17;100909.22;5025119;28;20483;-71
2022/12/15 14:20:35;;;;;;;32.30;21.52;;;;;;;2.79;69.41;100898.31;5024485;28;20061;-72
2022/12/15 14:30:16;;;;;;;35.25;21.40;;;;;;;2.90;69.50;100899.81;4987488;28;20038;-71
2022/12/15 14:32:54;;;;;;;34.28;21.08;;;;;;;2.83;69.38;100900.22;5021500;28;20416;-72